createdAt,value
2022-12-09T00:01:54.290Z,96137.31
2022-12-09T00:04:22.904Z,96130.84
2022-12-09T00:06:51.087Z,96144.38
2022-12-09T00:09:19.507Z,96135.22
2022-12-09T00:11:48.130Z,96140.50
2022-12-09T00:14:17.761Z,96140.50
2022-12-09T00:16:46.186Z,96139.34
2022-12-09T00:19:14.558Z,96133.00
2022-12-09T00:21:43.377Z,96126.97
2022-12-09T00:24:14.822Z,96132.38
2022-12-09T00:26:43.900Z,96133.69
2022-12-09T00:29:13.243Z,96143.22
2022-12-09T00:31:43.246Z,96126.03
2022-12-09T00:34:13.778Z,96136.53
2022-12-09T00:36:41.919Z,96141.06
2022-12-09T00:39:13.266Z,96126.06
2022-12-09T00:41:41.628Z,96132.13
2022-12-09T00:44:10.926Z,96134.34
2022-12-09T00:46:39.107Z,96132.63
2022-12-09T00:49:09.186Z,96131.94
2022-12-09T00:51:37.782Z,96137.00
2022-12-09T00:54:06.293Z,96138.44
2022-12-09T00:56:34.631Z,96147.75
2022-12-09T00:59:03.057Z,96139.53
2022-12-09T01:01:31.612Z,96139.69
2022-12-09T01:03:59.733Z,96137.53
2022-12-09T01:06:30.018Z,96130.34
2022-12-09T01:08:58.850Z,96141.75
2022-12-09T01:11:28.950Z,96139.38
2022-12-09T01:14:01.203Z,96139.69
2022-12-09T01:16:32.517Z,96142.63
2022-12-09T01:19:03.668Z,96146.59
2022-12-09T01:21:35.481Z,96156.47
2022-12-09T01:24:10.241Z,96148.63
2022-12-09T01:26:39.360Z,96158.94
2022-12-09T01:29:07.518Z,96154.63
2022-12-09T01:31:36.640Z,96154.25
2022-12-09T01:34:05.756Z,96149.91
2022-12-09T01:36:35.783Z,96164.22
2022-12-09T01:39:05.716Z,96163.78
2022-12-09T01:41:35.737Z,96163.91
2022-12-09T01:44:16.227Z,96154.41
2022-12-09T01:46:45.432Z,96160.91
2022-12-09T01:49:18.318Z,96154.69
2022-12-09T01:51:55.796Z,96162.84
2022-12-09T01:54:24.559Z,96154.53
2022-12-09T01:56:53.524Z,96159.69
2022-12-09T01:59:22.913Z,96150.97
2022-12-09T02:01:54.231Z,96150.28
2022-12-09T02:04:22.392Z,96146.88
2022-12-09T02:06:52.788Z,96148.56
2022-12-09T02:09:22.286Z,96145.91
2022-12-09T02:12:05.445Z,96140.63
2022-12-09T02:14:40.486Z,96139.63
2022-12-09T02:17:26.075Z,96134.72
2022-12-09T02:20:05.785Z,96142.28
2022-12-09T02:22:40.455Z,96137.91
2022-12-09T02:25:19.296Z,96135.38
2022-12-09T02:27:51.940Z,96130.91
2022-12-09T02:30:23.232Z,96136.41
2022-12-09T02:33:17.370Z,96124.25
2022-12-09T02:35:54.970Z,96130.44
2022-12-09T02:38:28.238Z,96134.97
2022-12-09T02:41:01.537Z,96123.31
2022-12-09T02:43:32.879Z,96123.81
2022-12-09T02:46:02.980Z,96123.97
2022-12-09T02:48:36.684Z,96122.97
2022-12-09T02:51:11.309Z,96126.25
2022-12-09T02:53:42.983Z,96118.28
2022-12-09T02:56:13.846Z,96123.22
2022-12-09T02:58:42.257Z,96124.81
2022-12-09T03:01:22.011Z,96120.81
2022-12-09T03:03:53.433Z,96114.94
2022-12-09T03:06:29.648Z,96116.88
2022-12-09T03:09:02.667Z,96115.66
2022-12-09T03:11:33.653Z,96116.56
2022-12-09T03:14:06.960Z,96112.22
2022-12-09T03:16:38.490Z,96119.66
2022-12-09T03:19:10.717Z,96107.53
2022-12-09T03:21:43.495Z,96112.81
2022-12-09T03:24:15.341Z,96115.81
2022-12-09T03:26:44.400Z,96107.28
2022-12-09T03:29:17.008Z,96103.72
2022-12-09T03:31:47.216Z,96109.91
2022-12-09T03:34:18.331Z,96107.03
2022-12-09T03:36:51.376Z,96105.84
2022-12-09T03:39:26.576Z,96102.16
2022-12-09T03:41:58.332Z,96108.34
2022-12-09T03:44:33.700Z,96098.88
2022-12-09T03:47:04.575Z,96098.72
2022-12-09T03:49:33.239Z,96093.63
2022-12-09T03:52:09.342Z,96100.34
2022-12-09T03:54:44.591Z,96098.56
2022-12-09T03:57:18.692Z,96101.00
2022-12-09T03:59:54.788Z,96102.41
2022-12-09T04:02:23.668Z,96102.56
2022-12-09T04:04:52.638Z,96094.69
2022-12-09T04:07:22.318Z,96105.59
2022-12-09T04:09:50.710Z,96099.66
2022-12-09T04:12:18.918Z,96096.09
2022-12-09T04:14:47.273Z,96096.31
2022-12-09T04:17:15.569Z,96089.59
2022-12-09T04:19:43.872Z,96092.59
2022-12-09T04:22:15.091Z,96093.00
2022-12-09T04:24:45.223Z,96100.97
2022-12-09T04:27:13.872Z,96101.19
2022-12-09T04:29:42.272Z,96102.09
2022-12-09T04:32:10.499Z,96102.09
2022-12-09T04:34:38.567Z,96094.78
2022-12-09T04:37:08.739Z,96100.78
2022-12-09T04:39:36.872Z,96098.22
2022-12-09T04:42:06.383Z,96096.41
2022-12-09T04:44:34.679Z,96104.63
2022-12-09T04:47:02.757Z,96103.00
2022-12-09T04:49:30.965Z,96097.34
2022-12-09T04:52:01.589Z,96098.88
2022-12-09T04:54:29.776Z,96101.47
2022-12-09T04:56:57.825Z,96095.72
2022-12-09T04:59:31.066Z,96097.72
2022-12-09T05:01:59.488Z,96105.72
2022-12-09T05:04:28.039Z,96097.63
2022-12-09T05:06:56.505Z,96103.31
2022-12-09T05:09:24.687Z,96095.63
2022-12-09T05:11:54.344Z,96101.56
2022-12-09T05:14:23.628Z,96098.50
2022-12-09T05:16:53.235Z,96104.63
2022-12-09T05:19:21.909Z,96106.66
2022-12-09T05:21:50.260Z,96101.72
2022-12-09T05:24:18.406Z,96115.00
2022-12-09T05:26:46.782Z,96108.25
2022-12-09T05:29:20.861Z,96106.41
2022-12-09T05:31:51.738Z,96109.31
2022-12-09T05:34:21.628Z,96095.69
2022-12-09T05:36:50.259Z,96099.94
2022-12-09T05:39:18.757Z,96099.19
2022-12-09T05:41:47.945Z,96095.56
2022-12-09T05:44:16.477Z,96087.03
2022-12-09T05:46:47.172Z,96093.91
2022-12-09T05:49:16.123Z,96096.56
2022-12-09T05:51:45.528Z,96086.88
2022-12-09T05:54:13.742Z,96095.81
2022-12-09T05:56:47.891Z,96093.81
2022-12-09T05:59:17.179Z,96098.00
2022-12-09T06:01:45.778Z,96092.09
2022-12-09T06:04:14.483Z,96092.84
2022-12-09T06:06:43.293Z,96089.00
2022-12-09T06:09:15.415Z,96095.28
2022-12-09T06:11:44.376Z,96086.38
2022-12-09T06:14:15.070Z,96083.16
2022-12-09T06:16:43.409Z,96085.81
2022-12-09T06:19:12.391Z,96091.91
2022-12-09T06:21:41.660Z,96082.63
2022-12-09T06:24:11.718Z,96092.00
2022-12-09T06:26:41.794Z,96089.94
2022-12-09T06:29:11.092Z,96081.16
2022-12-09T06:31:39.371Z,96087.16
2022-12-09T06:34:07.612Z,96090.34
2022-12-09T06:36:36.296Z,96083.41
2022-12-09T06:39:10.623Z,96086.25
2022-12-09T06:41:42.167Z,96077.81
2022-12-09T06:44:14.815Z,96081.72
2022-12-09T06:46:48.688Z,96080.72
2022-12-09T06:49:17.358Z,96077.53
2022-12-09T06:51:45.668Z,96071.91
2022-12-09T06:54:14.129Z,96074.84
2022-12-09T06:56:44.225Z,96073.19
2022-12-09T06:59:13.150Z,96077.66
2022-12-09T07:01:41.884Z,96076.25
2022-12-09T07:04:14.634Z,96081.97
2022-12-09T07:06:45.452Z,96093.59
2022-12-09T07:09:16.464Z,96090.59
2022-12-09T07:11:47.351Z,96097.16
2022-12-09T07:14:18.122Z,96092.34
2022-12-09T07:16:47.056Z,96098.00
2022-12-09T07:19:21.210Z,96086.53
2022-12-09T07:21:50.836Z,96088.41
2022-12-09T07:24:20.769Z,96098.84
2022-12-09T07:26:51.559Z,96095.78
2022-12-09T07:29:20.767Z,96097.63
2022-12-09T07:31:49.537Z,96101.50
2022-12-09T07:34:18.620Z,96093.41
2022-12-09T07:36:46.877Z,96094.19
2022-12-09T07:39:17.246Z,96091.16
2022-12-09T07:41:48.431Z,96078.81
2022-12-09T07:44:18.696Z,96074.41
2022-12-09T07:46:47.225Z,96070.31
2022-12-09T07:49:16.954Z,96068.53
2022-12-09T07:51:46.470Z,96067.56
2022-12-09T07:54:16.380Z,96069.13
2022-12-09T07:56:44.999Z,96076.66
2022-12-09T07:59:15.234Z,96084.44
2022-12-09T08:01:46.003Z,96091.16
2022-12-09T08:04:14.672Z,96096.53
2022-12-09T08:06:43.502Z,96106.28
2022-12-09T08:09:14.786Z,96094.81
2022-12-09T08:11:43.520Z,96087.38
2022-12-09T08:14:13.474Z,96090.84
2022-12-09T08:16:44.718Z,96092.44
2022-12-09T08:19:14.058Z,96089.19
2022-12-09T08:21:43.549Z,96086.59
2022-12-09T08:24:13.089Z,96089.47
2022-12-09T08:26:43.136Z,96101.03
2022-12-09T08:29:14.389Z,96102.59
2022-12-09T08:31:45.329Z,96109.19
2022-12-09T08:34:15.275Z,96120.59
2022-12-09T08:36:44.373Z,96119.50
2022-12-09T08:39:13.504Z,96117.06
2022-12-09T08:41:43.916Z,96108.66
2022-12-09T08:44:14.407Z,96113.88
2022-12-09T08:46:46.468Z,96107.72
2022-12-09T08:49:18.959Z,96108.34
2022-12-09T08:51:49.209Z,96101.41
2022-12-09T08:54:18.127Z,96103.78
2022-12-09T08:56:47.618Z,96107.97
2022-12-09T08:59:16.965Z,96110.47
2022-12-09T09:01:46.961Z,96105.59
2022-12-09T09:04:18.267Z,96097.84
2022-12-09T09:06:50.184Z,96107.91
2022-12-09T09:09:20.300Z,96109.16
2022-12-09T09:11:49.600Z,96101.53
2022-12-09T09:14:18.551Z,96094.94
2022-12-09T09:16:48.571Z,96100.47
2022-12-09T09:19:20.647Z,96100.19
2022-12-09T09:21:49.980Z,96094.44
2022-12-09T09:24:20.659Z,96087.44
2022-12-09T09:26:51.015Z,96092.44
2022-12-09T09:29:22.259Z,96096.91
2022-12-09T09:31:54.556Z,96089.03
2022-12-09T09:34:24.030Z,96098.13
2022-12-09T09:36:52.794Z,96095.78
2022-12-09T09:39:21.634Z,96087.28
2022-12-09T09:41:53.497Z,96080.63
2022-12-09T09:44:29.585Z,96087.53
2022-12-09T09:47:01.171Z,96078.75
2022-12-09T09:49:36.885Z,96082.97
2022-12-09T09:52:09.784Z,96081.28
2022-12-09T09:54:38.708Z,96067.72
2022-12-09T09:57:15.097Z,96065.66
2022-12-09T09:59:58.822Z,96058.19
2022-12-09T10:02:59.459Z,96059.19
2022-12-09T10:05:32.837Z,96063.50
2022-12-09T10:08:17.469Z,96057.75
2022-12-09T10:10:59.762Z,96061.78
2022-12-09T10:13:39.757Z,96056.00
2022-12-09T10:16:15.766Z,96046.66
2022-12-09T10:19:07.411Z,96048.63
2022-12-09T10:21:42.367Z,96048.97
2022-12-09T10:24:21.164Z,96038.91
2022-12-09T10:27:00.841Z,96037.28
2022-12-09T10:29:47.746Z,96025.25
2022-12-09T10:32:26.540Z,96029.97
2022-12-09T10:34:56.407Z,96022.34
2022-12-09T10:37:31.651Z,96024.34
2022-12-09T10:40:15.508Z,96018.84
2022-12-09T10:43:04.859Z,96018.78
2022-12-09T10:46:00.160Z,96009.59
2022-12-09T10:48:33.057Z,95998.72
2022-12-09T10:51:07.261Z,95993.56
2022-12-09T10:53:37.605Z,95997.56
2022-12-09T10:56:07.865Z,95991.09
2022-12-09T10:58:36.069Z,95987.97
2022-12-09T11:01:10.261Z,95983.72
2022-12-09T11:03:41.519Z,95986.72
2022-12-09T11:06:23.546Z,95987.28
2022-12-09T11:08:58.025Z,95978.06
2022-12-09T11:11:42.941Z,95982.44
2022-12-09T11:14:23.212Z,95983.69
2022-12-09T11:16:54.459Z,95982.22
2022-12-09T11:19:34.306Z,95979.94
2022-12-09T11:22:24.881Z,95981.72
2022-12-09T11:24:56.732Z,95983.28
2022-12-09T11:27:31.219Z,95974.66
2022-12-09T11:30:13.199Z,95979.53
2022-12-09T11:32:57.141Z,95961.69
2022-12-09T11:35:34.051Z,95967.28
2022-12-09T11:38:15.411Z,95961.28
2022-12-09T11:40:44.042Z,95965.66
2022-12-09T11:43:12.317Z,95976.16
2022-12-09T11:45:41.823Z,95978.63
2022-12-09T11:48:30.251Z,95982.59
2022-12-09T11:51:03.091Z,95978.97
2022-12-09T11:53:34.389Z,95979.59
2022-12-09T11:56:08.591Z,95972.44
2022-12-09T11:58:43.557Z,95991.38
2022-12-09T12:01:17.756Z,95990.22
2022-12-09T12:03:49.643Z,95985.03
2022-12-09T12:06:22.818Z,95993.22
2022-12-09T12:08:55.883Z,95990.03
2022-12-09T12:11:29.821Z,95979.63
2022-12-09T12:14:04.783Z,95987.91
2022-12-09T12:16:39.652Z,95978.84
2022-12-09T12:19:14.780Z,95979.31
2022-12-09T12:21:57.137Z,95981.97
2022-12-09T12:25:17.688Z,95971.91
2022-12-09T12:28:02.359Z,95964.03
2022-12-09T12:30:39.933Z,95959.94
2022-12-09T12:34:07.788Z,95961.16
2022-12-09T12:36:25.077Z,95956.56
2022-12-09T12:39:07.091Z,95953.84
2022-12-09T12:41:47.595Z,95947.88
2022-12-09T12:45:09.503Z,95945.53
2022-12-09T12:47:45.629Z,95953.16
2022-12-09T12:50:33.348Z,95957.03
2022-12-09T12:53:11.175Z,95956.38
2022-12-09T12:55:50.241Z,95950.28
2022-12-09T12:58:50.690Z,95950.13
2022-12-09T13:01:30.155Z,95939.31
2022-12-09T13:04:15.092Z,95941.25
2022-12-09T13:06:49.330Z,95933.69
2022-12-09T13:09:23.961Z,95933.81
2022-12-09T13:12:01.034Z,95929.69
2022-12-09T13:14:37.635Z,95916.38
2022-12-09T13:17:09.733Z,95927.16
2022-12-09T13:19:42.794Z,95917.66
2022-12-09T13:22:20.478Z,95922.03
2022-12-09T13:25:00.087Z,95917.13
2022-12-09T13:27:38.574Z,95925.78
2022-12-09T13:30:16.988Z,95919.06
2022-12-09T13:33:18.790Z,95922.88
2022-12-09T13:35:56.136Z,95918.31
2022-12-09T13:38:27.363Z,95919.97
2022-12-09T13:40:55.475Z,95909.28
2022-12-09T13:43:27.102Z,95911.28
2022-12-09T13:45:59.206Z,95909.28
2022-12-09T13:48:46.385Z,95903.72
2022-12-09T13:51:15.960Z,95911.88
2022-12-09T13:53:50.566Z,95902.44
2022-12-09T13:56:26.746Z,95894.72
2022-12-09T13:59:33.993Z,95896.50
2022-12-09T14:02:15.095Z,95900.00
2022-12-09T14:04:53.335Z,95897.38
2022-12-09T14:07:31.770Z,95895.44
2022-12-09T14:10:00.371Z,95896.66
2022-12-09T14:13:19.140Z,95899.13
2022-12-09T14:15:48.879Z,95892.25
2022-12-09T14:18:32.981Z,95887.25
2022-12-09T14:21:30.475Z,95885.44
2022-12-09T14:24:33.196Z,95892.22
2022-12-09T14:27:16.190Z,95894.59
2022-12-09T14:29:56.330Z,95895.13
2022-12-09T14:32:31.879Z,95882.88
2022-12-09T14:35:06.146Z,95882.56
2022-12-09T14:37:46.758Z,95886.56
2022-12-09T14:40:45.727Z,95888.78
2022-12-09T14:43:29.054Z,95890.91
2022-12-09T14:46:01.098Z,95885.56
2022-12-09T14:48:34.543Z,95885.06
2022-12-09T14:51:18.189Z,95885.38
2022-12-09T14:53:51.250Z,95885.75
2022-12-09T14:56:21.743Z,95877.66
2022-12-09T14:58:51.847Z,95871.19
2022-12-09T15:01:20.212Z,95869.41
2022-12-09T15:03:53.824Z,95874.47
2022-12-09T15:06:26.808Z,95884.41
2022-12-09T15:08:58.266Z,95877.09
2022-12-09T15:11:29.515Z,95871.81
2022-12-09T15:14:19.351Z,95866.50
2022-12-09T15:16:50.638Z,95876.00
2022-12-09T15:19:51.137Z,95879.94
2022-12-09T15:22:21.716Z,95872.47
2022-12-09T15:24:51.295Z,95870.63
2022-12-09T15:27:21.646Z,95869.38
2022-12-09T15:29:50.093Z,95871.03
2022-12-09T15:32:23.659Z,95871.53
2022-12-09T15:34:53.105Z,95860.28
2022-12-09T15:37:27.914Z,95861.84
2022-12-09T15:40:01.390Z,95869.31
2022-12-09T15:42:33.837Z,95867.06
2022-12-09T15:45:09.974Z,95866.59
2022-12-09T15:47:41.482Z,95872.75
2022-12-09T15:50:18.337Z,95866.81
2022-12-09T15:52:52.502Z,95857.13
2022-12-09T15:55:23.571Z,95861.84
2022-12-09T15:57:54.943Z,95875.31
2022-12-09T16:00:23.434Z,95877.75
2022-12-09T16:02:52.396Z,95873.97
2022-12-09T16:05:25.689Z,95868.75
2022-12-09T16:07:59.026Z,95860.78
2022-12-09T16:10:29.045Z,95855.50
2022-12-09T16:13:12.192Z,95865.78
2022-12-09T16:15:46.934Z,95865.22
2022-12-09T16:18:19.033Z,95862.59
2022-12-09T16:21:02.523Z,95858.06
2022-12-09T16:23:32.324Z,95866.50
2022-12-09T16:26:07.241Z,95862.66
2022-12-09T16:28:36.622Z,95874.69
2022-12-09T16:31:18.436Z,95865.78
2022-12-09T16:33:49.508Z,95874.81
2022-12-09T16:36:21.400Z,95869.78
2022-12-09T16:39:32.224Z,95868.41
2022-12-09T16:42:03.075Z,95859.88
2022-12-09T16:44:34.409Z,95859.56
2022-12-09T16:47:14.716Z,95850.25
2022-12-09T16:49:46.509Z,95847.16
2022-12-09T16:52:16.497Z,95848.34
2022-12-09T16:54:47.430Z,95858.50
2022-12-09T16:57:16.978Z,95851.34
2022-12-09T16:59:45.958Z,95847.41
2022-12-09T17:02:20.677Z,95842.91
2022-12-09T17:04:50.124Z,95823.03
2022-12-09T17:07:18.093Z,95831.25
2022-12-09T17:09:48.093Z,95831.09
2022-12-09T17:12:16.441Z,95825.22
2022-12-09T17:14:44.541Z,95829.09
2022-12-09T17:17:12.502Z,95822.13
2022-12-09T17:19:42.159Z,95833.97
2022-12-09T17:22:10.191Z,95829.97
2022-12-09T17:24:38.931Z,95830.97
2022-12-09T17:27:08.471Z,95832.34
2022-12-09T17:29:37.268Z,95827.03
2022-12-09T17:32:05.797Z,95832.47
2022-12-09T17:34:34.022Z,95848.06
2022-12-09T17:37:02.220Z,95852.38
2022-12-09T17:39:30.199Z,95859.41
2022-12-09T17:41:58.213Z,95847.75
2022-12-09T17:44:27.841Z,95852.66
2022-12-09T17:46:56.889Z,95857.31
2022-12-09T17:49:25.257Z,95864.91
2022-12-09T17:51:53.472Z,95859.84
2022-12-09T17:54:21.696Z,95853.16
2022-12-09T17:56:49.730Z,95854.91
2022-12-09T17:59:19.061Z,95860.75
2022-12-09T18:01:48.789Z,95866.47
2022-12-09T18:04:16.927Z,95864.31
2022-12-09T18:06:46.889Z,95871.91
2022-12-09T18:09:16.932Z,95868.13
2022-12-09T18:11:46.108Z,95873.34
2022-12-09T18:14:14.827Z,95866.41
2022-12-09T18:16:43.187Z,95867.72
2022-12-09T18:19:16.624Z,95859.63
2022-12-09T18:21:44.967Z,95863.81
2022-12-09T18:24:13.858Z,95867.03
2022-12-09T18:26:42.615Z,95869.06
2022-12-09T18:29:11.434Z,95858.78
2022-12-09T18:31:39.834Z,95872.53
2022-12-09T18:34:08.336Z,95870.44
2022-12-09T18:36:38.049Z,95871.25
2022-12-09T18:39:07.030Z,95879.06
2022-12-09T18:41:35.786Z,95867.31
2022-12-09T18:44:05.302Z,95870.34
2022-12-09T18:46:36.510Z,95872.09
2022-12-09T18:49:07.286Z,95867.13
2022-12-09T18:51:37.584Z,95866.28
2022-12-09T18:54:07.218Z,95869.63
2022-12-09T18:56:36.428Z,95868.00
2022-12-09T18:59:07.503Z,95873.59
2022-12-09T19:01:39.234Z,95875.47
2022-12-09T19:04:09.758Z,95868.00
2022-12-09T19:06:41.161Z,95870.84
2022-12-09T19:09:12.102Z,95880.22
2022-12-09T19:11:42.082Z,95878.56
2022-12-09T19:14:10.813Z,95874.13
2022-12-09T19:16:39.453Z,95875.31
2022-12-09T19:19:10.257Z,95868.44
2022-12-09T19:21:40.375Z,95876.59
2022-12-09T19:24:13.472Z,95885.53
2022-12-09T19:26:42.698Z,95882.69
2022-12-09T19:29:11.510Z,95884.50
2022-12-09T19:31:41.414Z,95878.72
2022-12-09T19:34:13.561Z,95883.69
2022-12-09T19:36:43.805Z,95881.38
2022-12-09T19:39:13.682Z,95879.78
2022-12-09T19:41:43.033Z,95889.09
2022-12-09T19:44:15.402Z,95877.53
2022-12-09T19:46:46.841Z,95887.28
2022-12-09T19:49:18.901Z,95894.56
2022-12-09T19:51:48.783Z,95892.44
2022-12-09T19:54:17.388Z,95897.22
2022-12-09T19:56:46.007Z,95892.28
2022-12-09T19:59:14.705Z,95897.09
2022-12-09T20:01:44.507Z,95889.06
2022-12-09T20:04:47.108Z,95893.72
2022-12-09T20:07:07.788Z,95892.06
2022-12-09T20:09:37.798Z,95885.38
2022-12-09T20:12:06.302Z,95894.28
2022-12-09T20:14:34.496Z,95884.28
2022-12-09T20:17:02.473Z,95885.47
2022-12-09T20:19:32.361Z,95891.19
2022-12-09T20:22:00.595Z,95893.56
2022-12-09T20:24:30.373Z,95886.31
2022-12-09T20:26:58.737Z,95885.44
2022-12-09T20:29:27.642Z,95887.63
2022-12-09T20:31:58.368Z,95902.50
2022-12-09T20:34:26.707Z,95892.59
2022-12-09T20:36:55.082Z,95903.22
2022-12-09T20:39:23.099Z,95891.53
2022-12-09T20:41:52.499Z,95890.25
2022-12-09T20:44:21.062Z,95887.28
2022-12-09T20:46:51.434Z,95890.28
2022-12-09T20:49:25.408Z,95896.44
2022-12-09T20:51:54.125Z,95894.19
2022-12-09T20:54:22.175Z,95901.28
2022-12-09T20:56:50.375Z,95902.16
2022-12-09T20:59:19.703Z,95899.22
2022-12-09T21:01:47.843Z,95896.38
2022-12-09T21:04:16.892Z,95892.63
2022-12-09T21:06:45.155Z,95894.19
2022-12-09T21:09:17.531Z,95900.50
2022-12-09T21:11:46.482Z,95906.88
2022-12-09T21:14:18.073Z,95895.72
2022-12-09T21:16:50.410Z,95901.13
2022-12-09T21:19:24.433Z,95892.00
2022-12-09T21:21:53.653Z,95889.31
2022-12-09T21:24:23.213Z,95885.09
2022-12-09T21:26:53.262Z,95890.00
2022-12-09T21:29:22.323Z,95884.78
2022-12-09T21:31:54.527Z,95886.03
2022-12-09T21:34:24.287Z,95886.03
2022-12-09T21:36:52.751Z,95893.41
2022-12-09T21:39:21.513Z,95895.94
2022-12-09T21:41:49.594Z,95897.03
2022-12-09T21:44:19.578Z,95900.06
2022-12-09T21:46:47.846Z,95902.13
2022-12-09T21:49:17.263Z,95905.34
2022-12-09T21:51:45.965Z,95913.72
2022-12-09T21:54:13.990Z,95908.66
2022-12-09T21:56:42.597Z,95908.03
2022-12-09T21:59:12.224Z,95902.22
2022-12-09T22:01:42.222Z,95911.34
2022-12-09T22:04:12.379Z,95910.91
2022-12-09T22:06:42.070Z,95906.56
2022-12-09T22:09:11.673Z,95911.63
2022-12-09T22:11:40.358Z,95908.94
2022-12-09T22:14:10.479Z,95915.41
2022-12-09T22:16:42.338Z,95919.75
2022-12-09T22:19:14.293Z,95914.13
2022-12-09T22:21:44.002Z,95915.13
2022-12-09T22:24:14.220Z,95912.13
2022-12-09T22:26:44.477Z,95919.75
2022-12-09T22:29:14.106Z,95910.38
2022-12-09T22:31:42.936Z,95918.25
2022-12-09T22:34:13.074Z,95926.72
2022-12-09T22:36:42.085Z,95918.44
2022-12-09T22:39:13.621Z,95924.44
2022-12-09T22:41:41.649Z,95920.91
2022-12-09T22:44:12.608Z,95932.31
2022-12-09T22:46:42.122Z,95933.19
2022-12-09T22:49:13.074Z,95932.94
2022-12-09T22:51:41.499Z,95930.13
2022-12-09T22:54:11.915Z,95936.22
2022-12-09T22:56:42.674Z,95926.38
2022-12-09T22:59:11.816Z,95926.59
2022-12-09T23:01:39.957Z,95923.22
2022-12-09T23:04:09.619Z,95919.34
2022-12-09T23:06:39.186Z,95915.78
2022-12-09T23:09:09.274Z,95917.31
2022-12-09T23:11:38.810Z,95928.88
2022-12-09T23:14:07.156Z,95933.03
2022-12-09T23:16:35.330Z,95926.28
2022-12-09T23:19:03.370Z,95920.78
2022-12-09T23:21:33.719Z,95930.88
2022-12-09T23:24:04.410Z,95937.31
2022-12-09T23:26:35.922Z,95941.47
2022-12-09T23:29:07.528Z,95942.97
2022-12-09T23:31:37.819Z,95934.28
2022-12-09T23:34:08.225Z,95939.19
2022-12-09T23:36:38.463Z,95933.47
2022-12-09T23:39:10.921Z,95931.75
2022-12-09T23:41:39.946Z,95937.59
2022-12-09T23:44:11.000Z,95939.75
2022-12-09T23:46:40.120Z,95937.06
2022-12-09T23:49:09.443Z,95936.91
2022-12-09T23:51:40.585Z,95939.63
2022-12-09T23:54:10.076Z,95933.88
2022-12-09T23:56:40.653Z,95940.66
2022-12-09T23:59:14.278Z,95925.75
